sensor_id;sensor_type;location;lat;lon;timestamp;P1;durP1;ratioP1;P2;durP2;ratioP2
7881;SDS011;3986;41.884;23.466;2022-08-19T05:58:44;120.65;;;109.80;;
7881;SDS011;3986;41.884;23.466;2022-08-19T06:01:12;102.45;;;94.05;;
7881;SDS011;3986;41.884;23.466;2022-08-19T06:03:40;78.82;;;70.75;;
7881;SDS011;3986;41.884;23.466;2022-08-19T06:06:08;71.13;;;64.93;;
7881;SDS011;3986;41.884;23.466;2022-08-19T06:08:36;71.30;;;64.47;;
7881;SDS011;3986;41.884;23.466;2022-08-19T06:11:14;66.13;;;59.75;;
7881;SDS011;3986;41.884;23.466;2022-08-19T06:13:44;71.57;;;58.50;;
7881;SDS011;3986;41.884;23.466;2022-08-19T06:16:12;68.93;;;61.33;;
7881;SDS011;3986;41.884;23.466;2022-08-19T06:18:44;79.25;;;67.75;;
7881;SDS011;3986;41.884;23.466;2022-08-19T06:21:11;68.38;;;60.92;;
7881;SDS011;3986;41.884;23.466;2022-08-19T06:23:38;62.67;;;53.97;;
7881;SDS011;3986;41.884;23.466;2022-08-19T06:26:05;60.65;;;54.50;;
7881;SDS011;3986;41.884;23.466;2022-08-19T06:28:33;57.35;;;52.30;;
7881;SDS011;3986;41.884;23.466;2022-08-19T06:31:06;53.05;;;48.40;;
7881;SDS011;3986;41.884;23.466;2022-08-19T06:33:33;51.33;;;47.30;;
7881;SDS011;3986;41.884;23.466;2022-08-19T06:36:00;50.65;;;46.88;;
7881;SDS011;3986;41.884;23.466;2022-08-19T06:38:27;48.88;;;44.83;;
7881;SDS011;3986;41.884;23.466;2022-08-19T06:40:59;83.78;;;58.58;;
7881;SDS011;3986;41.884;23.466;2022-08-19T06:43:27;77.35;;;71.10;;
7881;SDS011;3986;41.884;23.466;2022-08-19T06:45:54;83.32;;;74.40;;
7881;SDS011;3986;41.884;23.466;2022-08-19T06:48:23;90.95;;;81.32;;
7881;SDS011;3986;41.884;23.466;2022-08-19T06:50:49;89.95;;;80.32;;
7881;SDS011;3986;41.884;23.466;2022-08-19T06:53:16;87.30;;;77.25;;
7881;SDS011;3986;41.884;23.466;2022-08-19T06:55:44;91.70;;;70.63;;
7881;SDS011;3986;41.884;23.466;2022-08-19T06:58:11;112.60;;;73.22;;
7881;SDS011;3986;41.884;23.466;2022-08-19T07:00:38;75.32;;;65.72;;
7881;SDS011;3986;41.884;23.466;2022-08-19T07:03:05;96.32;;;69.63;;
7881;SDS011;3986;41.884;23.466;2022-08-19T07:05:34;74.07;;;61.70;;
7881;SDS011;3986;41.884;23.466;2022-08-19T07:08:04;70.43;;;52.53;;
7881;SDS011;3986;41.884;23.466;2022-08-19T07:10:32;67.10;;;48.33;;
7881;SDS011;3986;41.884;23.466;2022-08-19T07:13:00;54.35;;;47.95;;
7881;SDS011;3986;41.884;23.466;2022-08-19T07:15:27;119.40;;;48.53;;
7881;SDS011;3986;41.884;23.466;2022-08-19T07:17:54;74.00;;;43.22;;
7881;SDS011;3986;41.884;23.466;2022-08-19T07:20:22;81.88;;;44.15;;
7881;SDS011;3986;41.884;23.466;2022-08-19T07:22:50;46.83;;;37.45;;
7881;SDS011;3986;41.884;23.466;2022-08-19T07:25:17;51.58;;;33.10;;
7881;SDS011;3986;41.884;23.466;2022-08-19T07:27:47;144.60;;;38.28;;
7881;SDS011;3986;41.884;23.466;2022-08-19T07:30:16;77.70;;;33.30;;
7881;SDS011;3986;41.884;23.466;2022-08-19T07:32:43;62.92;;;31.55;;
7881;SDS011;3986;41.884;23.466;2022-08-19T07:35:10;56.90;;;31.45;;
7881;SDS011;3986;41.884;23.466;2022-08-19T07:37:37;35.75;;;30.02;;
7881;SDS011;3986;41.884;23.466;2022-08-19T07:40:11;79.35;;;26.20;;
7881;SDS011;3986;41.884;23.466;2022-08-19T07:42:38;63.20;;;26.70;;
7881;SDS011;3986;41.884;23.466;2022-08-19T07:45:06;57.33;;;26.92;;
7881;SDS011;3986;41.884;23.466;2022-08-19T07:47:33;43.53;;;24.98;;
7881;SDS011;3986;41.884;23.466;2022-08-19T07:50:00;46.35;;;25.08;;
7881;SDS011;3986;41.884;23.466;2022-08-19T07:52:29;89.20;;;29.77;;
7881;SDS011;3986;41.884;23.466;2022-08-19T07:54:56;57.80;;;27.95;;
7881;SDS011;3986;41.884;23.466;2022-08-19T07:57:26;58.22;;;30.60;;
7881;SDS011;3986;41.884;23.466;2022-08-19T07:59:53;73.70;;;27.33;;
7881;SDS011;3986;41.884;23.466;2022-08-19T08:02:20;53.45;;;26.00;;
7881;SDS011;3986;41.884;23.466;2022-08-19T08:04:47;92.38;;;25.40;;
7881;SDS011;3986;41.884;23.466;2022-08-19T08:07:32;37.95;;;26.08;;
7881;SDS011;3986;41.884;23.466;2022-08-19T08:10:16;58.10;;;27.77;;
7881;SDS011;3986;41.884;23.466;2022-08-19T08:12:45;45.15;;;19.95;;
7881;SDS011;3986;41.884;23.466;2022-08-19T08:15:13;56.67;;;20.30;;
7881;SDS011;3986;41.884;23.466;2022-08-19T08:17:43;57.88;;;20.85;;
7881;SDS011;3986;41.884;23.466;2022-08-19T08:20:11;87.93;;;22.65;;
7881;SDS011;3986;41.884;23.466;2022-08-19T08:22:42;38.10;;;15.98;;
7881;SDS011;3986;41.884;23.466;2022-08-19T08:25:27;45.85;;;17.80;;
7881;SDS011;3986;41.884;23.466;2022-08-19T08:27:56;49.88;;;16.70;;
7881;SDS011;3986;41.884;23.466;2022-08-19T08:30:24;27.05;;;14.57;;
7881;SDS011;3986;41.884;23.466;2022-08-19T08:32:52;45.08;;;15.52;;
7881;SDS011;3986;41.884;23.466;2022-08-19T08:35:20;67.28;;;17.30;;
7881;SDS011;3986;41.884;23.466;2022-08-19T08:37:49;42.83;;;14.85;;
7881;SDS011;3986;41.884;23.466;2022-08-19T08:40:19;47.10;;;13.48;;
7881;SDS011;3986;41.884;23.466;2022-08-19T08:42:52;52.65;;;13.07;;
7881;SDS011;3986;41.884;23.466;2022-08-19T08:45:25;61.83;;;14.85;;
7881;SDS011;3986;41.884;23.466;2022-08-19T08:47:53;43.55;;;13.73;;
7881;SDS011;3986;41.884;23.466;2022-08-19T08:50:29;79.22;;;14.93;;
7881;SDS011;3986;41.884;23.466;2022-08-19T08:53:01;35.80;;;17.55;;
7881;SDS011;3986;41.884;23.466;2022-08-19T08:55:30;87.57;;;12.88;;
7881;SDS011;3986;41.884;23.466;2022-08-19T08:58:01;48.83;;;10.88;;
7881;SDS011;3986;41.884;23.466;2022-08-19T09:00:32;52.20;;;11.27;;
7881;SDS011;3986;41.884;23.466;2022-08-19T09:03:02;67.55;;;12.02;;
7881;SDS011;3986;41.884;23.466;2022-08-19T09:05:33;62.65;;;11.73;;
7881;SDS011;3986;41.884;23.466;2022-08-19T09:08:07;62.22;;;10.65;;
7881;SDS011;3986;41.884;23.466;2022-08-19T09:10:39;67.75;;;12.95;;
7881;SDS011;3986;41.884;23.466;2022-08-19T09:13:13;74.28;;;11.02;;
7881;SDS011;3986;41.884;23.466;2022-08-19T09:15:50;56.60;;;10.55;;
7881;SDS011;3986;41.884;23.466;2022-08-19T09:18:23;73.13;;;12.43;;
7881;SDS011;3986;41.884;23.466;2022-08-19T09:20:50;40.72;;;11.00;;
7881;SDS011;3986;41.884;23.466;2022-08-19T09:23:17;81.45;;;10.60;;
7881;SDS011;3986;41.884;23.466;2022-08-19T09:25:45;61.72;;;8.70;;
7881;SDS011;3986;41.884;23.466;2022-08-19T09:28:13;60.70;;;9.15;;
7881;SDS011;3986;41.884;23.466;2022-08-19T09:30:41;36.40;;;7.53;;
7881;SDS011;3986;41.884;23.466;2022-08-19T09:33:08;83.50;;;11.80;;
7881;SDS011;3986;41.884;23.466;2022-08-19T09:35:35;41.20;;;9.18;;
7881;SDS011;3986;41.884;23.466;2022-08-19T09:38:02;75.50;;;9.50;;
7881;SDS011;3986;41.884;23.466;2022-08-19T09:40:29;83.72;;;10.23;;
7881;SDS011;3986;41.884;23.466;2022-08-19T09:42:57;86.85;;;11.15;;
7881;SDS011;3986;41.884;23.466;2022-08-19T09:45:29;62.55;;;9.65;;
7881;SDS011;3986;41.884;23.466;2022-08-19T09:47:56;60.20;;;8.38;;
7881;SDS011;3986;41.884;23.466;2022-08-19T09:50:23;35.28;;;7.13;;
7881;SDS011;3986;41.884;23.466;2022-08-19T09:52:51;85.80;;;12.50;;
7881;SDS011;3986;41.884;23.466;2022-08-19T09:55:22;75.07;;;9.95;;
7881;SDS011;3986;41.884;23.466;2022-08-19T09:57:49;47.80;;;7.55;;
7881;SDS011;3986;41.884;23.466;2022-08-19T10:00:16;42.10;;;6.75;;
7881;SDS011;3986;41.884;23.466;2022-08-19T10:03:04;37.35;;;6.65;;
7881;SDS011;3986;41.884;23.466;2022-08-19T10:05:31;41.63;;;7.43;;
7881;SDS011;3986;41.884;23.466;2022-08-19T10:08:17;48.35;;;8.55;;
7881;SDS011;3986;41.884;23.466;2022-08-19T10:10:46;30.65;;;8.05;;
7881;SDS011;3986;41.884;23.466;2022-08-19T10:13:14;46.03;;;7.13;;
7881;SDS011;3986;41.884;23.466;2022-08-19T10:15:42;52.30;;;7.22;;
7881;SDS011;3986;41.884;23.466;2022-08-19T10:18:11;49.70;;;7.40;;
7881;SDS011;3986;41.884;23.466;2022-08-19T10:20:38;47.50;;;7.05;;
7881;SDS011;3986;41.884;23.466;2022-08-19T10:23:06;76.18;;;8.38;;
7881;SDS011;3986;41.884;23.466;2022-08-19T10:25:33;82.15;;;9.20;;
7881;SDS011;3986;41.884;23.466;2022-08-19T10:28:01;86.13;;;11.25;;
7881;SDS011;3986;41.884;23.466;2022-08-19T10:30:28;82.15;;;9.55;;
7881;SDS011;3986;41.884;23.466;2022-08-19T10:32:55;58.35;;;8.10;;
7881;SDS011;3986;41.884;23.466;2022-08-19T10:35:23;67.07;;;9.57;;
7881;SDS011;3986;41.884;23.466;2022-08-19T10:37:51;59.42;;;9.10;;
7881;SDS011;3986;41.884;23.466;2022-08-19T10:40:18;101.43;;;11.43;;
7881;SDS011;3986;41.884;23.466;2022-08-19T10:42:45;63.35;;;9.52;;
7881;SDS011;3986;41.884;23.466;2022-08-19T10:45:12;60.22;;;9.65;;
7881;SDS011;3986;41.884;23.466;2022-08-19T10:47:39;41.90;;;8.80;;
7881;SDS011;3986;41.884;23.466;2022-08-19T10:50:06;26.85;;;7.78;;
7881;SDS011;3986;41.884;23.466;2022-08-19T10:52:52;56.33;;;9.02;;
7881;SDS011;3986;41.884;23.466;2022-08-19T10:55:20;57.45;;;9.13;;
7881;SDS011;3986;41.884;23.466;2022-08-19T10:58:10;38.67;;;7.75;;
7881;SDS011;3986;41.884;23.466;2022-08-19T11:00:38;51.70;;;9.93;;
7881;SDS011;3986;41.884;23.466;2022-08-19T11:03:07;59.15;;;9.20;;
7881;SDS011;3986;41.884;23.466;2022-08-19T11:05:35;41.22;;;8.75;;
7881;SDS011;3986;41.884;23.466;2022-08-19T11:08:04;54.95;;;9.02;;
7881;SDS011;3986;41.884;23.466;2022-08-19T11:10:32;62.13;;;10.00;;
7881;SDS011;3986;41.884;23.466;2022-08-19T11:12:59;40.35;;;8.68;;
7881;SDS011;3986;41.884;23.466;2022-08-19T11:15:26;81.32;;;11.50;;
7881;SDS011;3986;41.884;23.466;2022-08-19T11:17:53;40.75;;;8.32;;
7881;SDS011;3986;41.884;23.466;2022-08-19T11:20:21;55.47;;;9.20;;
7881;SDS011;3986;41.884;23.466;2022-08-19T11:22:48;47.88;;;8.38;;
7881;SDS011;3986;41.884;23.466;2022-08-19T11:25:19;56.33;;;9.52;;
7881;SDS011;3986;41.884;23.466;2022-08-19T11:27:47;51.17;;;8.90;;
7881;SDS011;3986;41.884;23.466;2022-08-19T11:30:16;34.22;;;8.23;;
7881;SDS011;3986;41.884;23.466;2022-08-19T11:32:43;57.15;;;8.65;;
7881;SDS011;3986;41.884;23.466;2022-08-19T11:35:10;72.90;;;9.57;;
7881;SDS011;3986;41.884;23.466;2022-08-19T11:37:37;48.75;;;9.00;;
7881;SDS011;3986;41.884;23.466;2022-08-19T11:40:05;46.22;;;8.25;;
7881;SDS011;3986;41.884;23.466;2022-08-19T11:42:34;57.88;;;9.13;;
7881;SDS011;3986;41.884;23.466;2022-08-19T11:45:18;57.05;;;9.10;;
7881;SDS011;3986;41.884;23.466;2022-08-19T11:47:45;43.17;;;8.15;;
7881;SDS011;3986;41.884;23.466;2022-08-19T11:50:12;65.25;;;10.15;;
7881;SDS011;3986;41.884;23.466;2022-08-19T11:52:39;41.45;;;8.23;;
7881;SDS011;3986;41.884;23.466;2022-08-19T11:55:07;43.97;;;8.35;;
7881;SDS011;3986;41.884;23.466;2022-08-19T11:57:36;47.85;;;8.13;;
7881;SDS011;3986;41.884;23.466;2022-08-19T12:00:03;77.80;;;10.20;;
7881;SDS011;3986;41.884;23.466;2022-08-19T12:02:32;45.30;;;8.40;;
7881;SDS011;3986;41.884;23.466;2022-08-19T12:04:59;44.05;;;8.63;;
7881;SDS011;3986;41.884;23.466;2022-08-19T12:07:26;45.65;;;8.57;;
7881;SDS011;3986;41.884;23.466;2022-08-19T12:09:54;68.95;;;9.93;;
7881;SDS011;3986;41.884;23.466;2022-08-19T12:12:21;55.50;;;9.07;;
7881;SDS011;3986;41.884;23.466;2022-08-19T12:14:51;50.15;;;9.15;;
7881;SDS011;3986;41.884;23.466;2022-08-19T12:17:22;31.60;;;7.57;;
7881;SDS011;3986;41.884;23.466;2022-08-19T12:19:49;80.95;;;12.95;;
7881;SDS011;3986;41.884;23.466;2022-08-19T12:22:16;83.38;;;10.98;;
7881;SDS011;3986;41.884;23.466;2022-08-19T12:24:42;82.38;;;11.30;;
7881;SDS011;3986;41.884;23.466;2022-08-19T12:27:09;71.70;;;10.30;;
7881;SDS011;3986;41.884;23.466;2022-08-19T12:29:37;48.10;;;8.90;;
7881;SDS011;3986;41.884;23.466;2022-08-19T12:32:05;93.72;;;12.50;;
7881;SDS011;3986;41.884;23.466;2022-08-19T12:34:34;54.40;;;10.23;;
7881;SDS011;3986;41.884;23.466;2022-08-19T12:37:03;37.97;;;9.98;;
7881;SDS011;3986;41.884;23.466;2022-08-19T12:39:33;68.68;;;10.75;;
7881;SDS011;3986;41.884;23.466;2022-08-19T12:42:01;43.92;;;9.60;;
7881;SDS011;3986;41.884;23.466;2022-08-19T12:44:28;32.10;;;9.20;;
7881;SDS011;3986;41.884;23.466;2022-08-19T12:46:57;25.38;;;9.57;;
7881;SDS011;3986;41.884;23.466;2022-08-19T12:49:26;35.58;;;10.10;;
7881;SDS011;3986;41.884;23.466;2022-08-19T12:51:54;43.97;;;9.65;;
7881;SDS011;3986;41.884;23.466;2022-08-19T12:54:20;54.33;;;11.02;;
7881;SDS011;3986;41.884;23.466;2022-08-19T12:56:47;49.60;;;11.00;;
7881;SDS011;3986;41.884;23.466;2022-08-19T12:59:14;22.33;;;8.52;;
7881;SDS011;3986;41.884;23.466;2022-08-19T13:01:43;60.38;;;10.60;;
7881;SDS011;3986;41.884;23.466;2022-08-19T13:04:10;44.35;;;10.30;;
7881;SDS011;3986;41.884;23.466;2022-08-19T13:06:38;41.88;;;9.10;;
7881;SDS011;3986;41.884;23.466;2022-08-19T13:09:05;43.25;;;9.68;;
7881;SDS011;3986;41.884;23.466;2022-08-19T13:11:32;36.47;;;9.45;;
7881;SDS011;3986;41.884;23.466;2022-08-19T13:13:59;37.00;;;9.13;;
7881;SDS011;3986;41.884;23.466;2022-08-19T13:16:27;39.25;;;9.93;;
7881;SDS011;3986;41.884;23.466;2022-08-19T13:18:55;39.33;;;10.30;;
7881;SDS011;3986;41.884;23.466;2022-08-19T13:21:23;40.45;;;11.02;;
7881;SDS011;3986;41.884;23.466;2022-08-19T13:23:53;54.95;;;11.02;;
7881;SDS011;3986;41.884;23.466;2022-08-19T13:26:20;52.05;;;11.05;;
7881;SDS011;3986;41.884;23.466;2022-08-19T13:28:47;72.80;;;11.88;;
7881;SDS011;3986;41.884;23.466;2022-08-19T13:31:33;49.65;;;11.23;;
7881;SDS011;3986;41.884;23.466;2022-08-19T13:34:19;42.33;;;10.88;;
7881;SDS011;3986;41.884;23.466;2022-08-19T13:36:54;68.72;;;12.07;;
7881;SDS011;3986;41.884;23.466;2022-08-19T13:39:23;30.35;;;11.02;;
7881;SDS011;3986;41.884;23.466;2022-08-19T13:41:50;65.45;;;12.57;;
7881;SDS011;3986;41.884;23.466;2022-08-19T13:44:17;60.65;;;11.90;;
7881;SDS011;3986;41.884;23.466;2022-08-19T13:46:44;50.92;;;11.18;;
7881;SDS011;3986;41.884;23.466;2022-08-19T13:49:11;59.78;;;13.70;;
7881;SDS011;3986;41.884;23.466;2022-08-19T13:51:40;36.28;;;11.10;;
7881;SDS011;3986;41.884;23.466;2022-08-19T13:54:08;65.63;;;12.30;;
7881;SDS011;3986;41.884;23.466;2022-08-19T13:56:40;48.30;;;11.15;;
7881;SDS011;3986;41.884;23.466;2022-08-19T13:59:08;48.33;;;11.20;;
7881;SDS011;3986;41.884;23.466;2022-08-19T14:01:35;39.25;;;11.15;;
7881;SDS011;3986;41.884;23.466;2022-08-19T14:04:02;51.22;;;13.32;;
7881;SDS011;3986;41.884;23.466;2022-08-19T14:06:31;55.30;;;11.60;;
7881;SDS011;3986;41.884;23.466;2022-08-19T14:08:58;54.17;;;11.20;;
7881;SDS011;3986;41.884;23.466;2022-08-19T14:11:27;75.43;;;12.07;;
7881;SDS011;3986;41.884;23.466;2022-08-19T14:13:55;91.07;;;13.55;;
7881;SDS011;3986;41.884;23.466;2022-08-19T14:16:22;56.42;;;11.45;;
7881;SDS011;3986;41.884;23.466;2022-08-19T14:18:49;62.70;;;12.88;;
7881;SDS011;3986;41.884;23.466;2022-08-19T14:21:17;93.55;;;14.05;;
7881;SDS011;3986;41.884;23.466;2022-08-19T14:23:47;73.88;;;12.30;;
7881;SDS011;3986;41.884;23.466;2022-08-19T14:26:15;100.90;;;14.02;;
7881;SDS011;3986;41.884;23.466;2022-08-19T14:28:43;49.80;;;12.77;;
7881;SDS011;3986;41.884;23.466;2022-08-19T14:31:13;58.88;;;12.45;;
7881;SDS011;3986;41.884;23.466;2022-08-19T14:33:43;52.80;;;13.57;;
7881;SDS011;3986;41.884;23.466;2022-08-19T14:36:10;64.53;;;12.30;;
7881;SDS011;3986;41.884;23.466;2022-08-19T14:38:37;36.05;;;10.60;;
7881;SDS011;3986;41.884;23.466;2022-08-19T14:41:11;64.38;;;12.30;;
7881;SDS011;3986;41.884;23.466;2022-08-19T14:43:42;66.40;;;12.57;;
7881;SDS011;3986;41.884;23.466;2022-08-19T14:46:18;63.55;;;12.27;;
7881;SDS011;3986;41.884;23.466;2022-08-19T14:48:47;65.93;;;13.43;;
7881;SDS011;3986;41.884;23.466;2022-08-19T14:51:15;53.83;;;11.77;;
7881;SDS011;3986;41.884;23.466;2022-08-19T14:53:42;56.95;;;13.23;;
7881;SDS011;3986;41.884;23.466;2022-08-19T14:56:10;42.40;;;11.57;;
7881;SDS011;3986;41.884;23.466;2022-08-19T14:58:38;44.42;;;11.20;;
7881;SDS011;3986;41.884;23.466;2022-08-19T15:01:06;57.25;;;11.82;;
7881;SDS011;3986;41.884;23.466;2022-08-19T15:03:35;35.03;;;11.05;;
7881;SDS011;3986;41.884;23.466;2022-08-19T15:06:02;78.85;;;12.25;;
7881;SDS011;3986;41.884;23.466;2022-08-19T15:08:32;64.43;;;12.07;;
7881;SDS011;3986;41.884;23.466;2022-08-19T15:11:02;27.67;;;10.10;;
7881;SDS011;3986;41.884;23.466;2022-08-19T15:13:34;37.60;;;10.52;;
7881;SDS011;3986;41.884;23.466;2022-08-19T15:16:01;39.38;;;10.25;;
7881;SDS011;3986;41.884;23.466;2022-08-19T15:18:28;38.53;;;10.70;;
7881;SDS011;3986;41.884;23.466;2022-08-19T15:20:57;74.85;;;12.18;;
7881;SDS011;3986;41.884;23.466;2022-08-19T15:23:24;71.28;;;12.20;;
7881;SDS011;3986;41.884;23.466;2022-08-19T15:25:51;45.13;;;10.93;;
7881;SDS011;3986;41.884;23.466;2022-08-19T15:28:20;69.72;;;12.13;;
7881;SDS011;3986;41.884;23.466;2022-08-19T15:30:47;50.78;;;11.82;;
7881;SDS011;3986;41.884;23.466;2022-08-19T15:33:15;53.92;;;13.73;;
7881;SDS011;3986;41.884;23.466;2022-08-19T15:35:45;79.20;;;15.13;;
7881;SDS011;3986;41.884;23.466;2022-08-19T15:38:13;67.57;;;12.55;;
7881;SDS011;3986;41.884;23.466;2022-08-19T15:40:41;102.97;;;14.00;;
7881;SDS011;3986;41.884;23.466;2022-08-19T15:43:08;57.85;;;13.68;;
7881;SDS011;3986;41.884;23.466;2022-08-19T15:45:35;93.32;;;13.48;;
7881;SDS011;3986;41.884;23.466;2022-08-19T15:48:04;82.20;;;12.70;;
7881;SDS011;3986;41.884;23.466;2022-08-19T15:50:31;80.40;;;13.88;;
7881;SDS011;3986;41.884;23.466;2022-08-19T15:52:59;77.72;;;14.90;;
7881;SDS011;3986;41.884;23.466;2022-08-19T15:55:30;78.53;;;13.15;;
7881;SDS011;3986;41.884;23.466;2022-08-19T15:57:58;146.82;;;16.70;;
7881;SDS011;3986;41.884;23.466;2022-08-19T16:00:43;58.17;;;12.13;;
7881;SDS011;3986;41.884;23.466;2022-08-19T16:03:27;73.68;;;13.95;;
7881;SDS011;3986;41.884;23.466;2022-08-19T16:06:11;68.10;;;13.15;;
7881;SDS011;3986;41.884;23.466;2022-08-19T16:08:51;49.65;;;13.10;;
7881;SDS011;3986;41.884;23.466;2022-08-19T16:11:21;57.50;;;12.90;;
7881;SDS011;3986;41.884;23.466;2022-08-19T16:13:49;63.17;;;13.30;;
7881;SDS011;3986;41.884;23.466;2022-08-19T16:16:19;77.43;;;12.60;;
7881;SDS011;3986;41.884;23.466;2022-08-19T16:18:46;74.60;;;14.20;;
7881;SDS011;3986;41.884;23.466;2022-08-19T16:21:13;80.90;;;13.65;;
7881;SDS011;3986;41.884;23.466;2022-08-19T16:23:42;83.65;;;13.75;;
7881;SDS011;3986;41.884;23.466;2022-08-19T16:26:10;67.45;;;12.80;;
7881;SDS011;3986;41.884;23.466;2022-08-19T16:28:40;82.10;;;14.52;;
7881;SDS011;3986;41.884;23.466;2022-08-19T16:31:07;73.57;;;13.18;;
7881;SDS011;3986;41.884;23.466;2022-08-19T16:33:34;101.05;;;15.05;;
7881;SDS011;3986;41.884;23.466;2022-08-19T16:36:02;47.60;;;11.80;;
7881;SDS011;3986;41.884;23.466;2022-08-19T16:38:30;104.55;;;17.08;;
7881;SDS011;3986;41.884;23.466;2022-08-19T16:40:58;59.05;;;13.23;;
7881;SDS011;3986;41.884;23.466;2022-08-19T16:43:27;72.03;;;15.45;;
7881;SDS011;3986;41.884;23.466;2022-08-19T16:45:56;43.95;;;11.50;;
7881;SDS011;3986;41.884;23.466;2022-08-19T16:48:23;47.33;;;11.23;;
7881;SDS011;3986;41.884;23.466;2022-08-19T16:50:54;72.55;;;13.55;;
7881;SDS011;3986;41.884;23.466;2022-08-19T16:53:22;45.50;;;13.13;;
7881;SDS011;3986;41.884;23.466;2022-08-19T16:55:53;43.85;;;12.65;;
7881;SDS011;3986;41.884;23.466;2022-08-19T16:58:21;61.40;;;12.93;;
7881;SDS011;3986;41.884;23.466;2022-08-19T17:00:49;38.40;;;12.95;;
7881;SDS011;3986;41.884;23.466;2022-08-19T17:03:18;68.90;;;14.73;;
7881;SDS011;3986;41.884;23.466;2022-08-19T17:05:49;81.78;;;14.95;;
7881;SDS011;3986;41.884;23.466;2022-08-19T17:08:17;51.17;;;13.15;;
7881;SDS011;3986;41.884;23.466;2022-08-19T17:10:45;46.72;;;13.15;;
7881;SDS011;3986;41.884;23.466;2022-08-19T17:13:13;68.00;;;14.48;;
7881;SDS011;3986;41.884;23.466;2022-08-19T17:15:40;97.45;;;15.40;;
7881;SDS011;3986;41.884;23.466;2022-08-19T17:18:08;65.18;;;18.67;;
7881;SDS011;3986;41.884;23.466;2022-08-19T17:20:38;81.60;;;13.25;;
7881;SDS011;3986;41.884;23.466;2022-08-19T17:23:06;60.50;;;12.98;;
7881;SDS011;3986;41.884;23.466;2022-08-19T17:25:34;60.95;;;12.15;;
7881;SDS011;3986;41.884;23.466;2022-08-19T17:28:05;61.08;;;13.45;;
7881;SDS011;3986;41.884;23.466;2022-08-19T17:30:33;78.72;;;16.35;;
7881;SDS011;3986;41.884;23.466;2022-08-19T17:33:00;43.13;;;14.18;;
7881;SDS011;3986;41.884;23.466;2022-08-19T17:35:28;74.28;;;13.63;;
7881;SDS011;3986;41.884;23.466;2022-08-19T17:37:57;54.70;;;13.20;;
7881;SDS011;3986;41.884;23.466;2022-08-19T17:40:24;174.15;;;22.55;;
7881;SDS011;3986;41.884;23.466;2022-08-19T17:42:51;54.10;;;14.05;;
7881;SDS011;3986;41.884;23.466;2022-08-19T17:45:18;94.53;;;31.15;;
7881;SDS011;3986;41.884;23.466;2022-08-19T17:47:46;64.65;;;17.48;;
7881;SDS011;3986;41.884;23.466;2022-08-19T17:50:13;93.68;;;24.42;;
7881;SDS011;3986;41.884;23.466;2022-08-19T17:52:41;116.82;;;19.58;;
7881;SDS011;3986;41.884;23.466;2022-08-19T17:55:09;78.32;;;15.45;;
7881;SDS011;3986;41.884;23.466;2022-08-19T17:57:37;107.53;;;16.65;;
7881;SDS011;3986;41.884;23.466;2022-08-19T18:00:06;69.90;;;14.65;;
7881;SDS011;3986;41.884;23.466;2022-08-19T18:02:42;91.90;;;25.58;;
7881;SDS011;3986;41.884;23.466;2022-08-19T18:05:10;122.85;;;32.47;;
7881;SDS011;3986;41.884;23.466;2022-08-19T18:07:37;116.18;;;29.83;;
7881;SDS011;3986;41.884;23.466;2022-08-19T18:10:05;76.05;;;38.47;;
7881;SDS011;3986;41.884;23.466;2022-08-19T18:12:34;162.38;;;101.22;;
7881;SDS011;3986;41.884;23.466;2022-08-19T18:15:02;110.82;;;54.38;;
7881;SDS011;3986;41.884;23.466;2022-08-19T18:17:30;113.75;;;28.98;;
7881;SDS011;3986;41.884;23.466;2022-08-19T18:19:57;88.95;;;30.98;;
7881;SDS011;3986;41.884;23.466;2022-08-19T18:22:25;47.45;;;24.30;;
7881;SDS011;3986;41.884;23.466;2022-08-19T18:24:53;82.55;;;31.55;;
7881;SDS011;3986;41.884;23.466;2022-08-19T18:27:21;158.05;;;32.95;;
7881;SDS011;3986;41.884;23.466;2022-08-19T18:29:49;85.28;;;31.48;;
7881;SDS011;3986;41.884;23.466;2022-08-19T18:32:16;101.70;;;31.23;;
7881;SDS011;3986;41.884;23.466;2022-08-19T18:34:43;137.32;;;33.75;;
7881;SDS011;3986;41.884;23.466;2022-08-19T18:37:11;88.95;;;48.50;;
7881;SDS011;3986;41.884;23.466;2022-08-19T18:39:38;147.18;;;42.08;;
7881;SDS011;3986;41.884;23.466;2022-08-19T18:42:23;117.25;;;31.73;;
7881;SDS011;3986;41.884;23.466;2022-08-19T18:45:08;137.00;;;33.78;;
7881;SDS011;3986;41.884;23.466;2022-08-19T18:47:53;144.07;;;47.42;;
7881;SDS011;3986;41.884;23.466;2022-08-19T18:50:37;70.88;;;30.90;;
7881;SDS011;3986;41.884;23.466;2022-08-19T18:53:07;59.65;;;15.65;;
7881;SDS011;3986;41.884;23.466;2022-08-19T18:55:34;141.43;;;20.08;;
7881;SDS011;3986;41.884;23.466;2022-08-19T18:58:01;88.50;;;18.45;;
7881;SDS011;3986;41.884;23.466;2022-08-19T19:00:30;92.40;;;18.27;;
7881;SDS011;3986;41.884;23.466;2022-08-19T19:02:58;72.65;;;48.22;;
7881;SDS011;3986;41.884;23.466;2022-08-19T19:05:25;81.18;;;32.80;;
7881;SDS011;3986;41.884;23.466;2022-08-19T19:07:52;83.65;;;42.45;;
7881;SDS011;3986;41.884;23.466;2022-08-19T19:10:19;110.05;;;41.67;;
7881;SDS011;3986;41.884;23.466;2022-08-19T19:12:45;137.02;;;23.63;;
7881;SDS011;3986;41.884;23.466;2022-08-19T19:15:14;84.47;;;23.13;;
7881;SDS011;3986;41.884;23.466;2022-08-19T19:17:42;62.20;;;20.15;;
7881;SDS011;3986;41.884;23.466;2022-08-19T19:20:09;100.30;;;18.50;;
7881;SDS011;3986;41.884;23.466;2022-08-19T19:22:36;121.35;;;30.48;;
7881;SDS011;3986;41.884;23.466;2022-08-19T19:25:03;227.98;;;39.38;;
7881;SDS011;3986;41.884;23.466;2022-08-19T19:27:32;80.97;;;16.05;;
7881;SDS011;3986;41.884;23.466;2022-08-19T19:29:59;79.38;;;23.25;;
7881;SDS011;3986;41.884;23.466;2022-08-19T19:32:27;111.35;;;29.45;;
7881;SDS011;3986;41.884;23.466;2022-08-19T19:34:59;76.70;;;16.75;;
7881;SDS011;3986;41.884;23.466;2022-08-19T19:37:26;115.57;;;18.20;;
7881;SDS011;3986;41.884;23.466;2022-08-19T19:39:53;121.15;;;36.15;;
7881;SDS011;3986;41.884;23.466;2022-08-19T19:42:20;112.47;;;45.22;;
7881;SDS011;3986;41.884;23.466;2022-08-19T19:44:50;137.20;;;32.63;;
7881;SDS011;3986;41.884;23.466;2022-08-19T19:47:19;102.68;;;22.83;;
7881;SDS011;3986;41.884;23.466;2022-08-19T19:49:52;87.22;;;23.30;;
7881;SDS011;3986;41.884;23.466;2022-08-19T19:52:21;80.03;;;17.08;;
7881;SDS011;3986;41.884;23.466;2022-08-19T19:54:50;60.47;;;22.92;;
7881;SDS011;3986;41.884;23.466;2022-08-19T19:57:18;88.88;;;20.92;;
7881;SDS011;3986;41.884;23.466;2022-08-19T19:59:47;170.40;;;30.75;;
7881;SDS011;3986;41.884;23.466;2022-08-19T20:02:14;71.43;;;24.98;;
7881;SDS011;3986;41.884;23.466;2022-08-19T20:04:41;87.95;;;53.63;;
7881;SDS011;3986;41.884;23.466;2022-08-19T20:07:08;77.20;;;17.42;;
7881;SDS011;3986;41.884;23.466;2022-08-19T20:09:36;43.22;;;14.25;;
7881;SDS011;3986;41.884;23.466;2022-08-19T20:12:02;29.52;;;13.98;;
7881;SDS011;3986;41.884;23.466;2022-08-19T20:14:30;93.85;;;38.35;;
7881;SDS011;3986;41.884;23.466;2022-08-19T20:17:00;39.05;;;27.48;;
7881;SDS011;3986;41.884;23.466;2022-08-19T20:19:29;45.53;;;13.65;;
7881;SDS011;3986;41.884;23.466;2022-08-19T20:22:01;45.20;;;15.85;;
7881;SDS011;3986;41.884;23.466;2022-08-19T20:24:31;45.38;;;14.45;;
7881;SDS011;3986;41.884;23.466;2022-08-19T20:27:02;49.03;;;16.60;;
7881;SDS011;3986;41.884;23.466;2022-08-19T20:29:30;42.20;;;21.92;;
7881;SDS011;3986;41.884;23.466;2022-08-19T20:31:56;49.50;;;26.20;;
7881;SDS011;3986;41.884;23.466;2022-08-19T20:34:24;60.25;;;17.17;;
7881;SDS011;3986;41.884;23.466;2022-08-19T20:36:50;30.15;;;13.30;;
7881;SDS011;3986;41.884;23.466;2022-08-19T20:39:17;42.50;;;20.85;;
7881;SDS011;3986;41.884;23.466;2022-08-19T20:41:44;59.60;;;16.20;;
7881;SDS011;3986;41.884;23.466;2022-08-19T20:44:12;34.42;;;13.98;;